sensor_id;sensor_type;location;lat;lon;timestamp;pressure;altitude;pressure_sealevel;temperature;humidity
50166;BME280;36071;48.140;11.516;2024-01-27T00:00:18;97040.0;;;4.9;71.2
50166;BME280;36071;48.140;11.516;2024-01-27T00:05:18;97050.0;;;4.9;71.8
50166;BME280;36071;48.140;11.516;2024-01-27T00:10:18;97060.0;;;4.8;71.8
50166;BME280;36071;48.140;11.516;2024-01-27T00:15:23;97060.0;;;4.8;72.4
50166;BME280;36071;48.140;11.516;2024-01-27T00:20:18;97060.0;;;4.7;72.9
50166;BME280;36071;48.140;11.516;2024-01-27T00:25:18;97050.0;;;4.7;73.3
50166;BME280;36071;48.140;11.516;2024-01-27T00:30:18;97030.0;;;4.7;73.7
50166;BME280;36071;48.140;11.516;2024-01-27T00:35:18;97040.0;;;4.7;73.9
50166;BME280;36071;48.140;11.516;2024-01-27T00:40:18;97040.0;;;4.6;73.6
50166;BME280;36071;48.140;11.516;2024-01-27T00:45:21;97040.0;;;4.6;74.2
50166;BME280;36071;48.140;11.516;2024-01-27T00:50:19;97050.0;;;4.5;73.9
50166;BME280;36071;48.140;11.516;2024-01-27T00:55:19;97040.0;;;4.5;74.8
50166;BME280;36071;48.140;11.516;2024-01-27T01:00:19;97040.0;;;4.5;75.1
50166;BME280;36071;48.140;11.516;2024-01-27T01:05:19;97040.0;;;4.4;75.2
50166;BME280;36071;48.140;11.516;2024-01-27T01:10:19;97060.0;;;4.4;75.5
50166;BME280;36071;48.140;11.516;2024-01-27T01:15:19;97060.0;;;4.3;75.7
50166;BME280;36071;48.140;11.516;2024-01-27T01:20:19;97050.0;;;4.3;75.5
50166;BME280;36071;48.140;11.516;2024-01-27T01:25:19;97050.0;;;4.2;75.6
50166;BME280;36071;48.140;11.516;2024-01-27T01:30:22;97070.0;;;4.0;75.7
50166;BME280;36071;48.140;11.516;2024-01-27T01:35:19;97070.0;;;3.9;75.6
50166;BME280;36071;48.140;11.516;2024-01-27T01:40:19;97080.0;;;3.9;76.3
50166;BME280;36071;48.140;11.516;2024-01-27T01:45:19;97080.0;;;3.9;76.6
50166;BME280;36071;48.140;11.516;2024-01-27T01:50:20;97090.0;;;3.8;76.4
50166;BME280;36071;48.140;11.516;2024-01-27T01:55:23;97090.0;;;3.8;76.0
50166;BME280;36071;48.140;11.516;2024-01-27T02:00:20;97090.0;;;3.8;75.9
50166;BME280;36071;48.140;11.516;2024-01-27T02:05:20;97090.0;;;3.8;75.6
50166;BME280;36071;48.140;11.516;2024-01-27T02:10:20;97080.0;;;3.8;75.4
50166;BME280;36071;48.140;11.516;2024-01-27T02:15:20;97110.0;;;3.7;75.0
50166;BME280;36071;48.140;11.516;2024-01-27T02:20:20;97110.0;;;3.6;74.9
50166;BME280;36071;48.140;11.516;2024-01-27T02:25:20;97120.0;;;3.6;75.4
50166;BME280;36071;48.140;11.516;2024-01-27T02:30:24;97120.0;;;3.6;75.6
50166;BME280;36071;48.140;11.516;2024-01-27T02:35:24;97120.0;;;3.6;75.0
50166;BME280;36071;48.140;11.516;2024-01-27T02:40:24;97110.0;;;3.6;75.5
50166;BME280;36071;48.140;11.516;2024-01-27T02:45:24;97100.0;;;3.6;75.3
50166;BME280;36071;48.140;11.516;2024-01-27T02:50:24;97120.0;;;3.5;74.9
50166;BME280;36071;48.140;11.516;2024-01-27T02:55:24;97110.0;;;3.5;75.2
50166;BME280;36071;48.140;11.516;2024-01-27T03:00:24;97110.0;;;3.4;75.1
50166;BME280;36071;48.140;11.516;2024-01-27T03:05:24;97110.0;;;3.4;76.1
50166;BME280;36071;48.140;11.516;2024-01-27T03:10:27;97120.0;;;3.4;76.5
50166;BME280;36071;48.140;11.516;2024-01-27T03:15:24;97130.0;;;3.3;76.8
50166;BME280;36071;48.140;11.516;2024-01-27T03:20:24;97140.0;;;3.3;76.8
50166;BME280;36071;48.140;11.516;2024-01-27T03:25:24;97140.0;;;3.3;76.9
50166;BME280;36071;48.140;11.516;2024-01-27T03:30:24;97140.0;;;3.3;77.4
50166;BME280;36071;48.140;11.516;2024-01-27T03:35:24;97150.0;;;3.2;77.5
50166;BME280;36071;48.140;11.516;2024-01-27T03:40:24;97160.0;;;3.2;77.7
50166;BME280;36071;48.140;11.516;2024-01-27T03:45:24;97160.0;;;3.2;78.1
50166;BME280;36071;48.140;11.516;2024-01-27T03:50:24;97170.0;;;3.1;77.8
50166;BME280;36071;48.140;11.516;2024-01-27T03:55:25;97190.0;;;3.1;77.7
50166;BME280;36071;48.140;11.516;2024-01-27T04:00:24;97180.0;;;3.1;77.8
50166;BME280;36071;48.140;11.516;2024-01-27T04:05:24;97180.0;;;3.1;77.6
50166;BME280;36071;48.140;11.516;2024-01-27T04:10:25;97180.0;;;3.1;77.7
50166;BME280;36071;48.140;11.516;2024-01-27T04:15:24;97190.0;;;3.1;77.4
50166;BME280;36071;48.140;11.516;2024-01-27T04:20:24;97190.0;;;3.1;77.8
50166;BME280;36071;48.140;11.516;2024-01-27T04:25:24;97180.0;;;3.0;77.7
50166;BME280;36071;48.140;11.516;2024-01-27T04:30:24;97190.0;;;3.0;77.8
50166;BME280;36071;48.140;11.516;2024-01-27T04:35:24;97190.0;;;3.0;78.0
50166;BME280;36071;48.140;11.516;2024-01-27T04:40:24;97190.0;;;2.9;78.1
50166;BME280;36071;48.140;11.516;2024-01-27T04:45:24;97200.0;;;2.9;78.0
50166;BME280;36071;48.140;11.516;2024-01-27T04:50:24;97200.0;;;2.8;78.2
50166;BME280;36071;48.140;11.516;2024-01-27T04:55:24;97190.0;;;2.8;78.4
50166;BME280;36071;48.140;11.516;2024-01-27T05:00:24;97190.0;;;2.8;78.3
50166;BME280;36071;48.140;11.516;2024-01-27T05:05:24;97200.0;;;2.8;78.5
50166;BME280;36071;48.140;11.516;2024-01-27T05:10:25;97210.0;;;2.8;78.4
50166;BME280;36071;48.140;11.516;2024-01-27T05:20:24;97220.0;;;2.8;78.7
50166;BME280;36071;48.140;11.516;2024-01-27T05:25:24;97230.0;;;2.7;78.7
50166;BME280;36071;48.140;11.516;2024-01-27T05:30:24;97230.0;;;2.7;79.0
50166;BME280;36071;48.140;11.516;2024-01-27T05:35:24;97240.0;;;2.7;79.6
50166;BME280;36071;48.140;11.516;2024-01-27T05:40:24;97250.0;;;2.6;79.6
50166;BME280;36071;48.140;11.516;2024-01-27T05:45:24;97250.0;;;2.6;80.2
50166;BME280;36071;48.140;11.516;2024-01-27T05:50:24;97250.0;;;2.5;80.6
50166;BME280;36071;48.140;11.516;2024-01-27T05:55:26;97260.0;;;2.5;80.4
50166;BME280;36071;48.140;11.516;2024-01-27T06:00:24;97260.0;;;2.5;81.0
50166;BME280;36071;48.140;11.516;2024-01-27T06:05:24;97270.0;;;2.4;81.3
50166;BME280;36071;48.140;11.516;2024-01-27T06:10:24;97270.0;;;2.4;81.4
50166;BME280;36071;48.140;11.516;2024-01-27T06:15:24;97270.0;;;2.4;81.9
50166;BME280;36071;48.140;11.516;2024-01-27T06:20:24;97270.0;;;2.3;82.0
50166;BME280;36071;48.140;11.516;2024-01-27T06:25:23;97280.0;;;2.3;82.3
50166;BME280;36071;48.140;11.516;2024-01-27T06:30:24;97290.0;;;2.3;82.6
50166;BME280;36071;48.140;11.516;2024-01-27T06:35:23;97280.0;;;2.3;82.7
50166;BME280;36071;48.140;11.516;2024-01-27T06:40:24;97280.0;;;2.3;82.6
50166;BME280;36071;48.140;11.516;2024-01-27T06:45:24;97280.0;;;2.2;82.9
50166;BME280;36071;48.140;11.516;2024-01-27T06:50:29;97300.0;;;2.2;83.0
50166;BME280;36071;48.140;11.516;2024-01-27T06:55:24;97300.0;;;2.2;83.2
50166;BME280;36071;48.140;11.516;2024-01-27T07:00:24;97290.0;;;2.1;83.1
50166;BME280;36071;48.140;11.516;2024-01-27T07:05:25;97300.0;;;2.2;83.4
50166;BME280;36071;48.140;11.516;2024-01-27T07:10:25;97300.0;;;2.2;83.7
50166;BME280;36071;48.140;11.516;2024-01-27T07:15:25;97310.0;;;2.2;83.9
50166;BME280;36071;48.140;11.516;2024-01-27T07:20:25;97300.0;;;2.2;83.7
50166;BME280;36071;48.140;11.516;2024-01-27T07:25:25;97310.0;;;2.2;83.7
50166;BME280;36071;48.140;11.516;2024-01-27T07:30:25;97300.0;;;2.5;84.5
50166;BME280;36071;48.140;11.516;2024-01-27T07:35:24;97310.0;;;3.0;82.1
50166;BME280;36071;48.140;11.516;2024-01-27T07:40:25;97310.0;;;3.3;78.8
50166;BME280;36071;48.140;11.516;2024-01-27T07:45:25;97310.0;;;3.5;76.8
50166;BME280;36071;48.140;11.516;2024-01-27T07:50:25;97310.0;;;3.8;75.8
50166;BME280;36071;48.140;11.516;2024-01-27T07:55:26;97310.0;;;4.1;73.8
50166;BME280;36071;48.140;11.516;2024-01-27T08:00:25;97320.0;;;4.3;73.2
50166;BME280;36071;48.140;11.516;2024-01-27T08:05:25;97310.0;;;4.5;72.1
50166;BME280;36071;48.140;11.516;2024-01-27T08:10:26;97310.0;;;4.7;71.0
50166;BME280;36071;48.140;11.516;2024-01-27T08:15:25;97320.0;;;4.8;69.6
50166;BME280;36071;48.140;11.516;2024-01-27T08:20:25;97310.0;;;5.0;68.8
50166;BME280;36071;48.140;11.516;2024-01-27T08:25:28;97330.0;;;5.2;68.2
50166;BME280;36071;48.140;11.516;2024-01-27T08:30:25;97330.0;;;5.4;67.5
50166;BME280;36071;48.140;11.516;2024-01-27T08:35:25;97330.0;;;5.8;66.3
50166;BME280;36071;48.140;11.516;2024-01-27T08:40:26;97340.0;;;6.1;65.0
50166;BME280;36071;48.140;11.516;2024-01-27T08:45:25;97340.0;;;6.2;64.0
50166;BME280;36071;48.140;11.516;2024-01-27T08:50:25;97330.0;;;6.5;62.6
50166;BME280;36071;48.140;11.516;2024-01-27T08:55:25;97340.0;;;6.7;61.2
50166;BME280;36071;48.140;11.516;2024-01-27T09:00:25;97340.0;;;7.0;60.8
50166;BME280;36071;48.140;11.516;2024-01-27T09:05:25;97340.0;;;7.2;59.6
50166;BME280;36071;48.140;11.516;2024-01-27T09:10:24;97350.0;;;7.4;58.3
50166;BME280;36071;48.140;11.516;2024-01-27T09:15:25;97350.0;;;7.8;58.3
50166;BME280;36071;48.140;11.516;2024-01-27T09:20:24;97350.0;;;8.3;56.0
50166;BME280;36071;48.140;11.516;2024-01-27T09:25:25;97350.0;;;8.6;55.3
50166;BME280;36071;48.140;11.516;2024-01-27T09:30:24;97340.0;;;9.0;53.5
50166;BME280;36071;48.140;11.516;2024-01-27T09:35:25;97340.0;;;9.7;52.9
50166;BME280;36071;48.140;11.516;2024-01-27T09:40:25;97350.0;;;10.4;49.7
50166;BME280;36071;48.140;11.516;2024-01-27T09:45:28;97360.0;;;11.4;47.7
50166;BME280;36071;48.140;11.516;2024-01-27T09:50:25;97370.0;;;12.8;43.9
50166;BME280;36071;48.140;11.516;2024-01-27T09:55:25;97360.0;;;13.8;41.1
50166;BME280;36071;48.140;11.516;2024-01-27T10:00:25;97360.0;;;14.0;39.7
50166;BME280;36071;48.140;11.516;2024-01-27T10:05:25;97360.0;;;13.7;40.0
50166;BME280;36071;48.140;11.516;2024-01-27T10:10:25;97380.0;;;13.2;40.8
50166;BME280;36071;48.140;11.516;2024-01-27T10:15:26;97370.0;;;13.2;40.8
50166;BME280;36071;48.140;11.516;2024-01-27T10:20:28;97370.0;;;13.6;40.1
50166;BME280;36071;48.140;11.516;2024-01-27T10:25:25;97360.0;;;14.3;38.8
50166;BME280;36071;48.140;11.516;2024-01-27T10:30:26;97340.0;;;15.2;37.3
50166;BME280;36071;48.140;11.516;2024-01-27T10:35:25;97340.0;;;16.4;35.0
50166;BME280;36071;48.140;11.516;2024-01-27T10:40:25;97340.0;;;17.9;32.4
50166;BME280;36071;48.140;11.516;2024-01-27T10:45:26;97340.0;;;19.2;30.7
50166;BME280;36071;48.140;11.516;2024-01-27T10:50:24;97340.0;;;20.1;29.3
50166;BME280;36071;48.140;11.516;2024-01-27T10:55:25;97340.0;;;20.6;28.2
50166;BME280;36071;48.140;11.516;2024-01-27T11:00:25;97340.0;;;20.6;27.9
50166;BME280;36071;48.140;11.516;2024-01-27T11:05:25;97330.0;;;20.7;27.5
50166;BME280;36071;48.140;11.516;2024-01-27T11:10:25;97320.0;;;20.9;27.5
50166;BME280;36071;48.140;11.516;2024-01-27T11:15:26;97320.0;;;20.8;27.4
50166;BME280;36071;48.140;11.516;2024-01-27T11:20:25;97320.0;;;21.1;27.3
50166;BME280;36071;48.140;11.516;2024-01-27T11:25:25;97310.0;;;21.8;26.0
50166;BME280;36071;48.140;11.516;2024-01-27T11:30:28;97310.0;;;21.5;26.3
50166;BME280;36071;48.140;11.516;2024-01-27T11:35:25;97310.0;;;21.6;25.5
50166;BME280;36071;48.140;11.516;2024-01-27T11:40:25;97300.0;;;21.5;26.2
50166;BME280;36071;48.140;11.516;2024-01-27T11:45:28;97290.0;;;21.1;26.8
50166;BME280;36071;48.140;11.516;2024-01-27T11:50:24;97290.0;;;20.7;27.0
50166;BME280;36071;48.140;11.516;2024-01-27T11:55:25;97310.0;;;19.9;28.0
50166;BME280;36071;48.140;11.516;2024-01-27T12:00:25;97300.0;;;19.3;28.3
50166;BME280;36071;48.140;11.516;2024-01-27T12:05:25;97290.0;;;18.4;28.6
50166;BME280;36071;48.140;11.516;2024-01-27T12:10:25;97290.0;;;17.7;29.3
50166;BME280;36071;48.140;11.516;2024-01-27T12:15:25;97300.0;;;17.5;30.0
50166;BME280;36071;48.140;11.516;2024-01-27T12:20:26;97290.0;;;17.0;31.9
50166;BME280;36071;48.140;11.516;2024-01-27T12:25:26;97290.0;;;16.7;30.8
50166;BME280;36071;48.140;11.516;2024-01-27T12:30:26;97290.0;;;16.4;31.3
50166;BME280;36071;48.140;11.516;2024-01-27T12:35:26;97280.0;;;16.3;32.2
50166;BME280;36071;48.140;11.516;2024-01-27T12:40:26;97280.0;;;16.4;32.0
50166;BME280;36071;48.140;11.516;2024-01-27T12:45:26;97270.0;;;16.1;32.8
50166;BME280;36071;48.140;11.516;2024-01-27T12:50:26;97270.0;;;15.9;32.4
50166;BME280;36071;48.140;11.516;2024-01-27T12:55:27;97260.0;;;15.8;32.5
50166;BME280;36071;48.140;11.516;2024-01-27T13:00:29;97270.0;;;15.8;34.8
50166;BME280;36071;48.140;11.516;2024-01-27T13:05:26;97270.0;;;16.0;30.3
50166;BME280;36071;48.140;11.516;2024-01-27T13:10:26;97260.0;;;16.3;32.2
50166;BME280;36071;48.140;11.516;2024-01-27T13:15:26;97250.0;;;16.3;31.1
50166;BME280;36071;48.140;11.516;2024-01-27T13:20:26;97250.0;;;16.4;31.0
50166;BME280;36071;48.140;11.516;2024-01-27T13:25:26;97240.0;;;16.2;30.6
50166;BME280;36071;48.140;11.516;2024-01-27T13:30:26;97240.0;;;16.2;30.9
50166;BME280;36071;48.140;11.516;2024-01-27T13:35:29;97250.0;;;16.2;32.1
50166;BME280;36071;48.140;11.516;2024-01-27T13:40:26;97240.0;;;16.6;30.8
50166;BME280;36071;48.140;11.516;2024-01-27T13:45:26;97240.0;;;16.7;31.2
50166;BME280;36071;48.140;11.516;2024-01-27T13:50:26;97240.0;;;16.7;30.8
50166;BME280;36071;48.140;11.516;2024-01-27T13:55:26;97240.0;;;16.8;31.4
50166;BME280;36071;48.140;11.516;2024-01-27T14:00:27;97230.0;;;16.8;31.9
50166;BME280;36071;48.140;11.516;2024-01-27T14:05:26;97230.0;;;16.6;31.2
50166;BME280;36071;48.140;11.516;2024-01-27T14:10:26;97230.0;;;16.4;31.1
50166;BME280;36071;48.140;11.516;2024-01-27T14:15:26;97250.0;;;16.4;31.9
50166;BME280;36071;48.140;11.516;2024-01-27T14:20:26;97240.0;;;16.4;31.1
50166;BME280;36071;48.140;11.516;2024-01-27T14:25:26;97240.0;;;16.3;31.4
50166;BME280;36071;48.140;11.516;2024-01-27T14:30:26;97240.0;;;16.3;31.2
50166;BME280;36071;48.140;11.516;2024-01-27T14:35:26;97250.0;;;16.1;31.2
50166;BME280;36071;48.140;11.516;2024-01-27T14:40:26;97250.0;;;15.7;31.8
50166;BME280;36071;48.140;11.516;2024-01-27T14:45:26;97250.0;;;15.8;31.9
50166;BME280;36071;48.140;11.516;2024-01-27T14:50:27;97240.0;;;15.7;32.3
50166;BME280;36071;48.140;11.516;2024-01-27T14:55:26;97240.0;;;15.6;32.1
50166;BME280;36071;48.140;11.516;2024-01-27T15:00:26;97230.0;;;15.4;32.0
50166;BME280;36071;48.140;11.516;2024-01-27T15:05:29;97220.0;;;15.3;31.5
50166;BME280;36071;48.140;11.516;2024-01-27T15:10:26;97210.0;;;15.1;31.6
50166;BME280;36071;48.140;11.516;2024-01-27T15:15:26;97200.0;;;14.6;31.6
50166;BME280;36071;48.140;11.516;2024-01-27T15:20:26;97200.0;;;14.0;32.1
50166;BME280;36071;48.140;11.516;2024-01-27T15:25:28;97200.0;;;13.3;33.1
50166;BME280;36071;48.140;11.516;2024-01-27T15:30:26;97200.0;;;13.0;34.5
50166;BME280;36071;48.140;11.516;2024-01-27T15:35:26;97210.0;;;12.7;35.2
50166;BME280;36071;48.140;11.516;2024-01-27T15:40:26;97210.0;;;12.4;35.1
50166;BME280;36071;48.140;11.516;2024-01-27T15:45:26;97220.0;;;12.1;36.4
50166;BME280;36071;48.140;11.516;2024-01-27T15:50:26;97220.0;;;11.9;37.1
50166;BME280;36071;48.140;11.516;2024-01-27T15:55:27;97220.0;;;11.7;37.1
50166;BME280;36071;48.140;11.516;2024-01-27T16:00:26;97220.0;;;11.5;37.6
50166;BME280;36071;48.140;11.516;2024-01-27T16:05:26;97220.0;;;11.3;38.2
50166;BME280;36071;48.140;11.516;2024-01-27T16:10:26;97220.0;;;11.1;39.1
50166;BME280;36071;48.140;11.516;2024-01-27T16:15:26;97220.0;;;11.0;39.6
50166;BME280;36071;48.140;11.516;2024-01-27T16:20:26;97220.0;;;10.8;39.9
50166;BME280;36071;48.140;11.516;2024-01-27T16:25:26;97220.0;;;10.6;40.8
50166;BME280;36071;48.140;11.516;2024-01-27T16:30:26;97230.0;;;10.5;41.9
50166;BME280;36071;48.140;11.516;2024-01-27T16:35:26;97230.0;;;10.4;42.5
50166;BME280;36071;48.140;11.516;2024-01-27T16:40:26;97240.0;;;10.2;43.2
50166;BME280;36071;48.140;11.516;2024-01-27T16:45:26;97240.0;;;10.1;43.4
50166;BME280;36071;48.140;11.516;2024-01-27T16:50:26;97250.0;;;9.9;43.6
50166;BME280;36071;48.140;11.516;2024-01-27T16:55:26;97270.0;;;9.8;44.0
50166;BME280;36071;48.140;11.516;2024-01-27T17:00:29;97250.0;;;9.6;44.1
50166;BME280;36071;48.140;11.516;2024-01-27T17:05:26;97250.0;;;9.5;44.5
50166;BME280;36071;48.140;11.516;2024-01-27T17:10:26;97240.0;;;9.3;45.0
50166;BME280;36071;48.140;11.516;2024-01-27T17:15:27;97250.0;;;9.2;45.6
50166;BME280;36071;48.140;11.516;2024-01-27T17:20:26;97260.0;;;9.1;45.9
50166;BME280;36071;48.140;11.516;2024-01-27T17:25:26;97270.0;;;8.9;46.3
50166;BME280;36071;48.140;11.516;2024-01-27T17:30:27;97270.0;;;8.8;47.0
50166;BME280;36071;48.140;11.516;2024-01-27T17:35:27;97280.0;;;8.6;47.4
50166;BME280;36071;48.140;11.516;2024-01-27T17:40:26;97290.0;;;8.5;47.6
50166;BME280;36071;48.140;11.516;2024-01-27T17:45:31;97270.0;;;8.5;47.9
50166;BME280;36071;48.140;11.516;2024-01-27T17:50:26;97300.0;;;8.4;48.3
50166;BME280;36071;48.140;11.516;2024-01-27T17:55:26;97300.0;;;8.3;49.0
50166;BME280;36071;48.140;11.516;2024-01-27T18:00:29;97280.0;;;8.1;49.3
50166;BME280;36071;48.140;11.516;2024-01-27T18:05:26;97300.0;;;8.0;49.6
50166;BME280;36071;48.140;11.516;2024-01-27T18:10:26;97300.0;;;7.9;50.0
50166;BME280;36071;48.140;11.516;2024-01-27T18:15:26;97300.0;;;8.0;50.0
50166;BME280;36071;48.140;11.516;2024-01-27T18:20:26;97300.0;;;7.9;49.9
50166;BME280;36071;48.140;11.516;2024-01-27T18:25:26;97310.0;;;7.8;50.1
50166;BME280;36071;48.140;11.516;2024-01-27T18:30:26;97310.0;;;7.8;50.5
50166;BME280;36071;48.140;11.516;2024-01-27T18:35:26;97320.0;;;7.7;50.8
50166;BME280;36071;48.140;11.516;2024-01-27T18:40:26;97320.0;;;7.6;51.1
50166;BME280;36071;48.140;11.516;2024-01-27T18:45:26;97330.0;;;7.4;51.9
50166;BME280;36071;48.140;11.516;2024-01-27T18:50:26;97340.0;;;7.3;51.8
50166;BME280;36071;48.140;11.516;2024-01-27T18:55:26;97330.0;;;7.3;52.2
50166;BME280;36071;48.140;11.516;2024-01-27T19:00:28;97330.0;;;7.2;52.5
50166;BME280;36071;48.140;11.516;2024-01-27T19:05:27;97320.0;;;7.2;52.7
50166;BME280;36071;48.140;11.516;2024-01-27T19:10:27;97330.0;;;7.1;53.1
50166;BME280;36071;48.140;11.516;2024-01-27T19:15:32;97330.0;;;7.0;53.5
50166;BME280;36071;48.140;11.516;2024-01-27T19:20:27;97340.0;;;6.9;53.8
50166;BME280;36071;48.140;11.516;2024-01-27T19:25:27;97340.0;;;6.8;54.3
50166;BME280;36071;48.140;11.516;2024-01-27T19:30:27;97340.0;;;6.7;54.6
50166;BME280;36071;48.140;11.516;2024-01-27T19:35:27;97350.0;;;6.7;55.1
50166;BME280;36071;48.140;11.516;2024-01-27T19:40:30;97340.0;;;6.6;55.0
50166;BME280;36071;48.140;11.516;2024-01-27T19:45:27;97340.0;;;6.5;55.5
50166;BME280;36071;48.140;11.516;2024-01-27T19:50:27;97340.0;;;6.3;55.8
50166;BME280;36071;48.140;11.516;2024-01-27T19:55:27;97340.0;;;6.1;56.6
50166;BME280;36071;48.140;11.516;2024-01-27T20:00:27;97340.0;;;6.1;57.0
50166;BME280;36071;48.140;11.516;2024-01-27T20:05:27;97330.0;;;6.1;57.1
50166;BME280;36071;48.140;11.516;2024-01-27T20:10:32;97340.0;;;5.9;57.3
50166;BME280;36071;48.140;11.516;2024-01-27T20:15:27;97330.0;;;5.9;57.9
50166;BME280;36071;48.140;11.516;2024-01-27T20:20:27;97340.0;;;5.8;58.3
50166;BME280;36071;48.140;11.516;2024-01-27T20:25:30;97330.0;;;5.8;58.8
50166;BME280;36071;48.140;11.516;2024-01-27T20:30:27;97330.0;;;5.7;59.6
50166;BME280;36071;48.140;11.516;2024-01-27T20:35:27;97330.0;;;5.6;60.1
50166;BME280;36071;48.140;11.516;2024-01-27T20:40:27;97320.0;;;5.5;61.3
50166;BME280;36071;48.140;11.516;2024-01-27T20:45:32;97320.0;;;5.3;62.0
50166;BME280;36071;48.140;11.516;2024-01-27T20:50:27;97320.0;;;5.1;64.1
50166;BME280;36071;48.140;11.516;2024-01-27T20:55:27;97330.0;;;5.1;63.9
50166;BME280;36071;48.140;11.516;2024-01-27T21:00:27;97320.0;;;5.1;63.8
50166;BME280;36071;48.140;11.516;2024-01-27T21:05:27;97320.0;;;5.1;64.0
50166;BME280;36071;48.140;11.516;2024-01-27T21:10:30;97320.0;;;5.0;65.0
50166;BME280;36071;48.140;11.516;2024-01-27T21:15:27;97320.0;;;5.1;64.2
50166;BME280;36071;48.140;11.516;2024-01-27T21:25:30;97320.0;;;4.9;64.4
50166;BME280;36071;48.140;11.516;2024-01-27T21:30:27;97310.0;;;4.7;65.5
50166;BME280;36071;48.140;11.516;2024-01-27T21:35:27;97310.0;;;4.5;66.3
50166;BME280;36071;48.140;11.516;2024-01-27T21:40:27;97300.0;;;4.4;66.8
50166;BME280;36071;48.140;11.516;2024-01-27T21:45:27;97300.0;;;4.2;68.2
50166;BME280;36071;48.140;11.516;2024-01-27T21:50:27;97300.0;;;4.1;68.5
50166;BME280;36071;48.140;11.516;2024-01-27T21:55:27;97300.0;;;4.1;68.9
50166;BME280;36071;48.140;11.516;2024-01-27T22:00:27;97290.0;;;4.2;68.5
50166;BME280;36071;48.140;11.516;2024-01-27T22:05:27;97290.0;;;4.2;68.6
50166;BME280;36071;48.140;11.516;2024-01-27T22:10:27;97280.0;;;4.1;69.0
50166;BME280;36071;48.140;11.516;2024-01-27T22:15:27;97290.0;;;4.0;69.7
50166;BME280;36071;48.140;11.516;2024-01-27T22:20:27;97290.0;;;3.9;70.0
50166;BME280;36071;48.140;11.516;2024-01-27T22:25:30;97290.0;;;3.8;70.9
50166;BME280;36071;48.140;11.516;2024-01-27T22:30:27;97290.0;;;3.7;72.2
50166;BME280;36071;48.140;11.516;2024-01-27T22:40:27;97290.0;;;3.6;72.2
50166;BME280;36071;48.140;11.516;2024-01-27T22:45:32;97280.0;;;3.5;72.8
50166;BME280;36071;48.140;11.516;2024-01-27T22:50:32;97280.0;;;3.3;74.1
50166;BME280;36071;48.140;11.516;2024-01-27T22:55:27;97270.0;;;2.9;77.1
50166;BME280;36071;48.140;11.516;2024-01-27T23:00:27;97260.0;;;3.0;77.1
50166;BME280;36071;48.140;11.516;2024-01-27T23:05:27;97250.0;;;3.1;76.4
50166;BME280;36071;48.140;11.516;2024-01-27T23:10:27;97250.0;;;3.2;76.0
50166;BME280;36071;48.140;11.516;2024-01-27T23:15:27;97240.0;;;3.3;75.9
50166;BME280;36071;48.140;11.516;2024-01-27T23:20:27;97240.0;;;3.3;76.7
50166;BME280;36071;48.140;11.516;2024-01-27T23:25:32;97240.0;;;3.3;75.7
50166;BME280;36071;48.140;11.516;2024-01-27T23:30:27;97230.0;;;3.3;75.8
50166;BME280;36071;48.140;11.516;2024-01-27T23:35:30;97230.0;;;3.4;75.6
50166;BME280;36071;48.140;11.516;2024-01-27T23:40:26;97230.0;;;3.4;75.4
50166;BME280;36071;48.140;11.516;2024-01-27T23:45:27;97210.0;;;3.4;74.4
50166;BME280;36071;48.140;11.516;2024-01-27T23:50:27;97210.0;;;3.3;74.5
50166;BME280;36071;48.140;11.516;2024-01-27T23:55:27;97200.0;;;3.2;75.8
